Time;durP1;ratioP1;P1;durP2;ratioP2;P2;SDS_P1;SDS_P2;PMS_P1;PMS_P2;Temp;Humidity;BMP_temperature;BMP_pressure;BME280_temperature;BME280_humidity;BME280_pressure;Samples;Min_cycle;Max_cycle;Signal;HPM_P1;HPM_P2
2023/09/28 00:02:48;;;;;;;10.70;9.63;;;15.70;99.90;;;;;;4955615;29;20073;-46
2023/09/28 00:05:14;;;;;;;8.18;7.07;;;15.70;99.90;;;;;;4954775;28;20511;-49
2023/09/28 00:07:41;;;;;;;12.75;9.27;;;15.70;99.90;;;;;;4954781;28;20034;-48
2023/09/28 00:10:09;;;;;;;9.45;7.10;;;15.70;99.90;;;;;;4954402;28;20051;-47
2023/09/28 00:12:34;;;;;;;17.35;8.10;;;15.70;99.90;;;;;;4954294;28;20030;-46
2023/09/28 00:15:00;;;;;;;8.90;7.22;;;15.70;99.90;;;;;;4953909;28;20023;-47
2023/09/28 00:17:27;;;;;;;10.45;7.15;;;15.70;99.90;;;;;;4954156;29;20518;-46
2023/09/28 00:19:52;;;;;;;14.35;7.53;;;15.60;99.90;;;;;;4954347;28;20047;-49
2023/09/28 00:22:18;;;;;;;8.75;7.28;;;15.60;99.90;;;;;;4954323;29;20078;-47
2023/09/28 00:24:43;;;;;;;8.88;7.75;;;15.60;99.90;;;;;;4954018;29;20507;-46
2023/09/28 00:27:15;;;;;;;8.90;7.70;;;15.60;99.90;;;;;;5068470;28;20885;-46
2023/09/28 00:29:41;;;;;;;7.75;6.97;;;15.50;99.90;;;;;;5067193;28;20083;-45
2023/09/28 00:32:07;;;;;;;10.73;8.60;;;15.50;99.90;;;;;;5068776;28;20480;-48
2023/09/28 00:34:33;;;;;;;19.60;13.93;;;15.60;99.90;;;;;;5068173;28;20039;-47
2023/09/28 00:36:59;;;;;;;21.83;16.80;;;15.60;99.90;;;;;;5068718;28;20025;-45
2023/09/28 00:39:24;;;;;;;29.23;18.08;;;15.60;99.90;;;;;;5068549;28;20021;-48
2023/09/28 00:41:50;;;;;;;20.63;16.42;;;15.70;99.90;;;;;;5068700;28;20021;-48
2023/09/28 00:44:15;;;;;;;21.45;18.30;;;15.70;99.90;;;;;;5068177;28;20480;-47
2023/09/28 00:46:42;;;;;;;22.65;17.30;;;15.70;99.90;;;;;;5067907;28;20029;-50
2023/09/28 00:49:09;;;;;;;30.42;23.98;;;15.70;99.90;;;;;;5068466;28;20081;-46
2023/09/28 00:51:35;;;;;;;19.88;16.45;;;15.70;99.90;;;;;;5068268;28;20503;-45
2023/09/28 00:54:02;;;;;;;11.68;10.45;;;15.70;99.90;;;;;;5067957;28;20024;-45
2023/09/28 00:56:29;;;;;;;14.70;12.68;;;15.60;99.90;;;;;;5068854;28;20166;-45
2023/09/28 00:58:56;;;;;;;16.25;13.48;;;15.60;99.90;;;;;;5066627;28;20024;-48
2023/09/28 01:01:29;;;;;;;11.35;9.95;;;15.50;99.90;;;;;;5068067;28;20111;-45
2023/09/28 01:03:56;;;;;;;15.38;13.80;;;15.50;99.90;;;;;;5067880;28;20068;-51
2023/09/28 01:06:24;;;;;;;18.00;15.85;;;15.50;99.90;;;;;;5068130;28;20024;-45
2023/09/28 01:08:50;;;;;;;15.98;13.25;;;15.60;99.90;;;;;;5068211;28;20017;-48
2023/09/28 01:11:17;;;;;;;13.23;11.07;;;15.50;99.90;;;;;;5068155;28;20021;-47
2023/09/28 01:13:42;;;;;;;11.30;10.20;;;15.50;99.90;;;;;;5067830;28;20017;-48
2023/09/28 01:16:08;;;;;;;12.80;11.05;;;15.50;99.90;;;;;;5066562;28;20575;-48
2023/09/28 01:18:33;;;;;;;12.80;11.15;;;15.50;99.90;;;;;;5067634;28;20039;-47
2023/09/28 01:20:59;;;;;;;11.95;10.57;;;15.50;99.90;;;;;;5068021;28;20021;-46
2023/09/28 01:23:26;;;;;;;14.27;11.52;;;15.50;99.90;;;;;;5067531;28;20437;-45
2023/09/28 01:25:52;;;;;;;11.70;10.50;;;15.40;99.90;;;;;;5067411;28;20032;-46
2023/09/28 01:28:18;;;;;;;13.25;10.82;;;15.40;99.90;;;;;;5067582;28;20036;-46
2023/09/28 01:30:44;;;;;;;12.90;10.75;;;15.40;99.90;;;;;;5067661;28;20025;-45
2023/09/28 01:33:09;;;;;;;12.00;10.00;;;15.50;99.90;;;;;;5067240;28;20024;-47
2023/09/28 01:35:35;;;;;;;11.30;10.10;;;15.40;99.90;;;;;;5067526;28;20423;-48
2023/09/28 01:38:03;;;;;;;14.55;10.55;;;15.40;99.90;;;;;;5056622;28;20025;-50
2023/09/28 01:40:29;;;;;;;16.27;11.32;;;15.40;99.90;;;;;;5054339;28;20033;-49
2023/09/28 01:42:55;;;;;;;18.02;13.00;;;15.40;99.90;;;;;;5054158;28;20662;-46
2023/09/28 01:45:20;;;;;;;18.65;13.32;;;15.40;99.90;;;;;;5053706;28;20082;-47
2023/09/28 01:47:46;;;;;;;17.48;13.93;;;15.40;99.90;;;;;;5053908;28;20021;-46
2023/09/28 01:50:11;;;;;;;20.38;17.55;;;15.50;99.90;;;;;;5054027;28;20032;-47
2023/09/28 01:52:37;;;;;;;20.15;16.80;;;15.60;99.90;;;;;;5053743;28;20021;-46
2023/09/28 01:55:03;;;;;;;23.30;18.63;;;15.60;99.90;;;;;;5051848;28;20021;-45
2023/09/28 01:57:28;;;;;;;18.13;15.60;;;15.50;99.90;;;;;;5053880;28;20044;-47
2023/09/28 01:59:54;;;;;;;17.98;15.32;;;15.40;99.90;;;;;;5053766;28;20064;-47
2023/09/28 02:02:21;;;;;;;21.27;16.10;;;15.40;99.90;;;;;;5053696;28;20056;-46
2023/09/28 02:04:46;;;;;;;23.27;20.83;;;15.30;99.90;;;;;;5053439;28;20017;-46
2023/09/28 02:07:12;;;;;;;23.45;17.90;;;15.40;99.90;;;;;;5053182;28;20040;-49
2023/09/28 02:09:38;;;;;;;17.00;15.20;;;15.40;99.90;;;;;;5053595;28;20057;-46
2023/09/28 02:12:03;;;;;;;17.83;15.25;;;15.30;99.90;;;;;;5052241;28;20032;-47
2023/09/28 02:14:29;;;;;;;21.63;16.85;;;15.30;99.90;;;;;;5051907;28;20017;-46
2023/09/28 02:16:55;;;;;;;23.58;18.25;;;15.20;99.90;;;;;;5053461;28;20052;-46
2023/09/28 02:19:22;;;;;;;21.15;18.35;;;15.20;99.90;;;;;;5053718;28;20455;-50
2023/09/28 02:21:48;;;;;;;19.83;14.95;;;15.20;99.90;;;;;;5053238;28;20098;-47
2023/09/28 02:24:14;;;;;;;18.35;15.50;;;15.20;99.90;;;;;;5053194;28;20036;-47
2023/09/28 02:26:39;;;;;;;18.48;16.52;;;15.20;99.90;;;;;;5053648;28;20033;-48
2023/09/28 02:29:05;;;;;;;23.55;18.63;;;15.20;99.90;;;;;;5054481;28;20495;-48
2023/09/28 02:31:31;;;;;;;23.45;19.35;;;15.30;99.90;;;;;;5053506;28;20551;-46
2023/09/28 02:33:57;;;;;;;22.90;19.75;;;15.30;99.90;;;;;;5052871;28;20490;-46
2023/09/28 02:36:23;;;;;;;27.00;18.60;;;15.20;99.90;;;;;;5053034;28;20108;-45
2023/09/28 02:38:49;;;;;;;20.55;17.52;;;15.20;99.90;;;;;;5052726;28;20099;-46
2023/09/28 02:41:19;;;;;;;24.77;18.42;;;15.30;99.90;;;;;;5052957;28;20021;-46
2023/09/28 02:43:44;;;;;;;23.33;17.80;;;15.20;99.90;;;;;;5052807;28;20472;-48
2023/09/28 02:46:11;;;;;;;28.92;22.23;;;15.20;99.90;;;;;;5052704;28;20049;-51
2023/09/28 02:48:37;;;;;;;25.63;21.85;;;15.20;99.90;;;;;;5052108;28;20021;-48
2023/09/28 02:51:04;;;;;;;25.58;20.15;;;15.20;99.90;;;;;;5052814;28;20017;-46
2023/09/28 02:53:30;;;;;;;25.65;21.40;;;15.30;99.90;;;;;;5052507;28;20400;-47
2023/09/28 02:55:56;;;;;;;28.60;21.75;;;15.20;99.90;;;;;;5052662;28;20477;-47
2023/09/28 02:58:22;;;;;;;28.48;22.38;;;15.20;99.90;;;;;;5052585;28;20396;-46
2023/09/28 03:00:48;;;;;;;21.63;19.33;;;15.20;99.90;;;;;;5052694;28;20028;-46
2023/09/28 03:03:14;;;;;;;34.15;20.65;;;15.10;99.90;;;;;;5052490;28;20025;-46
2023/09/28 03:05:40;;;;;;;23.63;20.15;;;15.10;99.90;;;;;;5052222;28;20031;-46
2023/09/28 03:08:11;;;;;;;24.33;21.50;;;15.10;99.90;;;;;;5051212;28;20116;-48
2023/09/28 03:10:41;;;;;;;24.95;20.33;;;15.20;99.90;;;;;;5052397;28;20482;-47
2023/09/28 03:13:08;;;;;;;26.88;23.42;;;15.20;99.90;;;;;;5051980;28;20040;-49
2023/09/28 03:15:34;;;;;;;23.20;19.63;;;15.20;99.90;;;;;;5034205;28;20025;-48
2023/09/28 03:17:59;;;;;;;25.58;20.48;;;15.20;99.90;;;;;;5052331;28;20082;-48
2023/09/28 03:20:26;;;;;;;26.92;21.73;;;15.30;99.90;;;;;;5052429;28;20353;-46
2023/09/28 03:22:52;;;;;;;27.45;20.98;;;15.30;99.90;;;;;;5052125;28;20036;-48
2023/09/28 03:25:20;;;;;;;25.35;20.80;;;15.20;99.90;;;;;;5051859;28;20032;-46
2023/09/28 03:27:50;;;;;;;23.58;21.10;;;15.20;99.90;;;;;;5052183;28;20437;-48
2023/09/28 03:30:17;;;;;;;26.75;20.13;;;15.30;99.90;;;;;;5051921;28;20025;-50
2023/09/28 03:32:43;;;;;;;25.90;22.27;;;15.30;99.90;;;;;;5052067;28;20017;-46
2023/09/28 03:35:10;;;;;;;25.00;21.77;;;15.30;99.90;;;;;;5052849;28;20021;-47
2023/09/28 03:37:36;;;;;;;25.10;21.02;;;15.20;99.90;;;;;;5052766;28;20104;-46
2023/09/28 03:40:09;;;;;;;24.77;19.98;;;15.20;99.90;;;;;;5052204;28;20467;-46
2023/09/28 03:42:36;;;;;;;28.77;21.52;;;15.20;99.90;;;;;;5051840;28;20451;-48
2023/09/28 03:45:02;;;;;;;27.95;21.17;;;15.20;99.90;;;;;;5051639;28;20025;-46
2023/09/28 03:47:27;;;;;;;27.67;20.20;;;15.20;99.90;;;;;;5051797;28;20483;-46
2023/09/28 03:49:53;;;;;;;23.90;19.25;;;15.30;99.90;;;;;;5051667;28;20033;-46
2023/09/28 03:52:18;;;;;;;22.13;19.75;;;15.30;99.90;;;;;;5051643;28;20472;-47
2023/09/28 03:54:44;;;;;;;26.25;20.10;;;15.30;99.90;;;;;;5051075;28;20017;-46
2023/09/28 03:57:10;;;;;;;22.88;18.40;;;15.40;99.90;;;;;;5051523;28;20029;-46
2023/09/28 03:59:35;;;;;;;30.08;19.02;;;15.30;99.90;;;;;;5050317;28;20471;-46
2023/09/28 04:02:01;;;;;;;20.15;17.83;;;15.30;99.90;;;;;;5051411;28;20064;-47
2023/09/28 04:04:27;;;;;;;23.23;16.85;;;15.20;99.90;;;;;;5050762;28;20523;-49
2023/09/28 04:06:52;;;;;;;34.47;18.60;;;15.20;99.90;;;;;;5051457;28;20029;-47
2023/09/28 04:09:18;;;;;;;23.63;16.80;;;15.10;99.90;;;;;;5051535;28;20110;-46
2023/09/28 04:11:44;;;;;;;22.40;15.10;;;15.10;99.90;;;;;;5051452;28;20129;-46
2023/09/28 04:14:10;;;;;;;18.58;14.70;;;15.00;99.90;;;;;;5051184;28;20017;-46
2023/09/28 04:16:36;;;;;;;20.40;15.82;;;15.00;99.90;;;;;;5051313;28;20040;-48
2023/09/28 04:19:02;;;;;;;19.67;15.70;;;15.00;99.90;;;;;;5051375;28;20021;-47
2023/09/28 04:21:27;;;;;;;29.23;16.83;;;15.00;99.90;;;;;;5051301;28;20385;-49
2023/09/28 04:23:54;;;;;;;19.85;15.38;;;15.00;99.90;;;;;;5051024;28;20079;-45
2023/09/28 04:26:19;;;;;;;21.17;15.40;;;14.90;99.90;;;;;;5051040;28;20551;-47
2023/09/28 04:28:45;;;;;;;23.90;15.88;;;14.90;99.90;;;;;;5051272;28;20026;-45
2023/09/28 04:31:10;;;;;;;28.60;15.95;;;14.80;99.90;;;;;;5051235;28;20048;-45
2023/09/28 04:33:36;;;;;;;27.50;14.68;;;14.80;99.90;;;;;;5050877;28;20052;-45
2023/09/28 04:36:02;;;;;;;21.50;13.68;;;14.80;99.90;;;;;;5051182;28;20053;-48
2023/09/28 04:38:28;;;;;;;17.50;13.18;;;14.80;99.90;;;;;;5051166;28;20033;-45
2023/09/28 04:40:53;;;;;;;25.10;13.75;;;14.70;99.90;;;;;;5050952;28;20025;-46
2023/09/28 04:43:19;;;;;;;24.20;14.50;;;14.70;99.90;;;;;;5050944;28;20033;-50
2023/09/28 04:45:45;;;;;;;19.25;13.13;;;14.70;99.90;;;;;;5051035;28;20131;-48
2023/09/28 04:48:10;;;;;;;26.17;13.80;;;14.70;99.90;;;;;;5051156;28;20032;-46
2023/09/28 04:50:37;;;;;;;27.08;14.40;;;14.70;99.90;;;;;;5051127;28;20282;-46
2023/09/28 04:53:02;;;;;;;21.50;14.88;;;14.80;99.90;;;;;;5050956;28;20028;-50
2023/09/28 04:55:28;;;;;;;17.15;14.45;;;14.80;99.90;;;;;;5050320;28;20388;-49
2023/09/28 04:57:54;;;;;;;23.70;14.77;;;14.90;99.90;;;;;;5050936;28;20021;-48
2023/09/28 05:00:20;;;;;;;27.02;15.75;;;14.90;99.90;;;;;;5050887;28;20029;-48
2023/09/28 05:02:45;;;;;;;18.45;15.48;;;14.90;99.90;;;;;;5050785;28;20021;-47
2023/09/28 05:05:12;;;;;;;22.45;15.27;;;14.80;99.90;;;;;;5050611;28;20033;-46
2023/09/28 05:07:38;;;;;;;19.90;14.32;;;14.90;99.90;;;;;;5050962;28;20094;-48
2023/09/28 05:10:05;;;;;;;20.67;14.40;;;14.80;99.90;;;;;;5050838;28;20029;-47
2023/09/28 05:12:31;;;;;;;20.38;14.13;;;14.80;99.90;;;;;;5051753;28;20013;-47
2023/09/28 05:14:57;;;;;;;22.67;14.57;;;14.80;99.90;;;;;;5053782;28;20466;-49
2023/09/28 05:17:23;;;;;;;20.70;13.80;;;14.80;99.90;;;;;;5054262;28;20048;-48
2023/09/28 05:19:49;;;;;;;20.23;14.18;;;14.80;99.90;;;;;;5053941;28;20029;-48
2023/09/28 05:22:15;;;;;;;17.58;12.23;;;14.90;99.90;;;;;;5054712;28;20025;-47
2023/09/28 05:24:41;;;;;;;25.25;13.02;;;14.90;99.90;;;;;;5054194;28;20025;-47
2023/09/28 05:27:06;;;;;;;20.83;12.75;;;14.90;99.90;;;;;;5054566;28;20033;-48
2023/09/28 05:29:32;;;;;;;16.98;12.93;;;14.90;99.90;;;;;;5054033;28;20013;-46
2023/09/28 05:31:57;;;;;;;15.68;12.65;;;14.90;99.90;;;;;;5054368;28;20100;-47
2023/09/28 05:34:23;;;;;;;15.68;12.55;;;15.00;99.90;;;;;;5052727;28;20029;-44
2023/09/28 05:36:49;;;;;;;16.38;12.43;;;14.90;99.90;;;;;;5052735;28;20033;-48
2023/09/28 05:39:15;;;;;;;18.08;13.15;;;15.00;99.90;;;;;;5054221;28;20029;-50
2023/09/28 05:41:41;;;;;;;14.63;12.93;;;14.90;99.90;;;;;;5048055;28;20021;-48
2023/09/28 05:44:07;;;;;;;16.42;12.93;;;15.00;99.90;;;;;;5035459;28;20029;-46
2023/09/28 05:46:33;;;;;;;16.58;14.45;;;15.00;99.90;;;;;;5033877;28;20032;-49
2023/09/28 05:48:58;;;;;;;21.77;18.90;;;15.00;99.90;;;;;;5034253;28;20037;-46
2023/09/28 05:51:23;;;;;;;20.00;17.45;;;15.10;99.90;;;;;;5033818;28;20026;-47
2023/09/28 05:53:52;;;;;;;27.48;18.60;;;15.10;99.90;;;;;;5033730;28;20136;-47
2023/09/28 05:56:18;;;;;;;23.95;18.85;;;15.10;99.90;;;;;;5033722;28;20029;-50
2023/09/28 05:58:43;;;;;;;19.65;17.27;;;15.00;99.90;;;;;;5033864;28;20026;-47
2023/09/28 06:01:13;;;;;;;17.58;15.23;;;15.10;99.90;;;;;;5033936;28;20031;-47
2023/09/28 06:03:39;;;;;;;18.67;14.90;;;15.10;99.90;;;;;;5033397;28;20436;-47
2023/09/28 06:06:18;;;;;;;18.17;16.00;;;15.20;99.90;;;;;;5033470;28;20139;-50
2023/09/28 06:08:48;;;;;;;19.20;13.98;;;15.30;99.90;;;;;;5033847;28;20372;-45
2023/09/28 06:11:15;;;;;;;16.15;13.40;;;15.30;99.90;;;;;;5033657;28;20083;-49
2023/09/28 06:13:41;;;;;;;21.42;12.98;;;15.50;99.90;;;;;;5033460;28;20025;-47
2023/09/28 06:16:08;;;;;;;17.33;11.45;;;15.60;99.90;;;;;;5033510;28;20393;-46
2023/09/28 06:18:34;;;;;;;13.07;11.38;;;15.70;99.90;;;;;;5033464;28;20022;-48
2023/09/28 06:21:00;;;;;;;15.18;11.50;;;15.80;99.90;;;;;;5033475;28;20485;-50
2023/09/28 06:23:26;;;;;;;13.27;10.88;;;15.90;99.90;;;;;;5031814;28;20037;-48
2023/09/28 06:25:52;;;;;;;11.52;10.32;;;16.10;99.90;;;;;;5032693;28;20029;-46
2023/09/28 06:28:17;;;;;;;17.63;12.95;;;16.20;99.90;;;;;;5033401;28;20028;-49
2023/09/28 06:30:43;;;;;;;14.20;11.57;;;16.40;99.90;;;;;;5033314;28;20037;-47
2023/09/28 06:33:08;;;;;;;12.55;10.88;;;16.50;99.90;;;;;;5033174;28;20030;-45
2023/09/28 06:35:34;;;;;;;19.08;11.68;;;16.60;99.90;;;;;;5033049;28;20034;-46
2023/09/28 06:38:00;;;;;;;17.90;12.35;;;16.70;99.90;;;;;;5033228;28;20103;-49
2023/09/28 06:40:26;;;;;;;12.80;10.85;;;16.90;99.90;;;;;;5032910;28;20104;-46
2023/09/28 06:42:52;;;;;;;16.98;11.02;;;17.20;99.90;;;;;;5033021;28;20441;-45
2023/09/28 06:45:18;;;;;;;12.07;9.65;;;17.70;99.90;;;;;;5032742;28;20083;-45
2023/09/28 06:47:44;;;;;;;11.30;10.13;;;18.20;99.90;;;;;;5033067;28;20508;-45
2023/09/28 06:50:10;;;;;;;10.75;9.65;;;18.60;99.90;;;;;;5033096;28;20052;-46
2023/09/28 06:52:36;;;;;;;12.48;9.23;;;19.00;99.90;;;;;;5032883;28;20018;-45
2023/09/28 06:55:04;;;;;;;13.18;10.52;;;19.70;99.90;;;;;;5032546;28;20100;-50
2023/09/28 06:57:30;;;;;;;11.82;9.38;;;20.40;99.90;;;;;;5033528;28;20055;-47
2023/09/28 06:59:55;;;;;;;12.57;9.73;;;21.00;99.90;;;;;;5032539;28;20029;-47
2023/09/28 07:02:21;;;;;;;14.90;8.73;;;21.60;99.90;;;;;;5032778;28;20033;-46
2023/09/28 07:04:47;;;;;;;9.55;8.55;;;22.20;99.90;;;;;;5032468;28;20538;-50
2023/09/28 07:07:17;;;;;;;9.40;8.30;;;23.00;99.90;;;;;;5032663;28;20116;-49
2023/09/28 07:09:44;;;;;;;11.65;8.40;;;23.70;99.90;;;;;;5032798;28;20101;-46
2023/09/28 07:12:12;;;;;;;13.82;7.97;;;24.30;99.90;;;;;;5032743;28;20496;-48
2023/09/28 07:14:38;;;;;;;8.45;7.57;;;24.50;99.90;;;;;;5032289;28;20454;-49
2023/09/28 07:17:03;;;;;;;9.73;6.85;;;24.80;99.90;;;;;;5032547;28;20108;-47
2023/09/28 07:19:29;;;;;;;8.60;6.70;;;25.00;99.90;;;;;;5032377;28;20026;-47
2023/09/28 07:21:54;;;;;;;11.05;8.20;;;25.60;99.90;;;;;;5032372;28;20025;-48
2023/09/28 07:24:21;;;;;;;13.80;7.55;;;25.80;99.90;;;;;;5032010;28;20072;-50
2023/09/28 07:26:46;;;;;;;12.20;6.45;;;26.20;99.90;;;;;;5032191;28;20447;-48
2023/09/28 07:29:12;;;;;;;11.88;6.93;;;26.30;99.90;;;;;;5032328;28;20014;-46
2023/09/28 07:31:38;;;;;;;13.23;7.85;;;26.60;99.90;;;;;;5031058;28;20396;-48
2023/09/28 07:34:04;;;;;;;12.40;7.15;;;26.60;99.90;;;;;;5031458;28;20036;-48
2023/09/28 07:36:30;;;;;;;8.60;7.30;;;26.50;99.80;;;;;;5032050;28;20060;-46
2023/09/28 07:38:55;;;;;;;9.38;7.00;;;25.80;99.90;;;;;;5032116;28;20087;-46
2023/09/28 07:41:21;;;;;;;6.85;6.28;;;24.90;99.90;;;;;;5032250;28;20030;-47
2023/09/28 07:43:47;;;;;;;7.97;7.25;;;24.00;99.90;;;;;;5031851;28;20063;-47
2023/09/28 07:46:13;;;;;;;10.30;8.43;;;23.30;99.90;;;;;;5032296;28;20104;-46
2023/09/28 07:48:39;;;;;;;9.57;7.65;;;22.70;99.90;;;;;;5032182;28;20481;-46
2023/09/28 07:51:04;;;;;;;11.18;8.40;;;22.00;99.90;;;;;;5030840;28;20037;-49
2023/09/28 07:53:31;;;;;;;11.38;8.50;;;21.60;99.90;;;;;;5031619;28;20032;-46
2023/09/28 07:55:57;;;;;;;15.82;8.88;;;21.10;99.90;;;;;;5030591;28;20029;-49
2023/09/28 07:58:22;;;;;;;12.82;8.35;;;20.70;99.90;;;;;;5031857;28;20488;-50
2023/09/28 08:00:49;;;;;;;14.20;8.68;;;20.30;99.90;;;;;;5031796;28;20039;-49
2023/09/28 08:03:15;;;;;;;14.40;8.55;;;19.90;99.90;;;;;;5031550;28;20053;-48
2023/09/28 08:05:40;;;;;;;12.90;8.68;;;19.80;99.90;;;;;;5031387;28;20022;-49
2023/09/28 08:08:06;;;;;;;9.30;8.27;;;19.60;99.90;;;;;;5031603;28;20029;-46
2023/09/28 08:10:33;;;;;;;13.35;8.95;;;19.50;99.90;;;;;;5031441;28;20022;-46
2023/09/28 08:13:00;;;;;;;17.42;8.77;;;19.50;99.90;;;;;;5031381;28;20036;-46
2023/09/28 08:15:25;;;;;;;8.27;7.47;;;19.40;99.90;;;;;;5030170;28;20112;-48
2023/09/28 08:17:51;;;;;;;14.75;8.35;;;19.40;99.90;;;;;;5030445;28;20067;-46
2023/09/28 08:20:17;;;;;;;10.35;8.48;;;19.40;99.90;;;;;;5031586;28;20029;-48
2023/09/28 08:22:43;;;;;;;10.20;8.07;;;19.40;99.90;;;;;;5031801;28;20034;-46
2023/09/28 08:25:10;;;;;;;12.75;9.88;;;19.30;99.90;;;;;;5031023;28;20547;-46
2023/09/28 08:27:35;;;;;;;11.52;7.95;;;19.30;99.90;;;;;;5031528;28;20452;-46
2023/09/28 08:30:02;;;;;;;11.45;8.20;;;19.30;99.90;;;;;;5031410;28;20117;-47
2023/09/28 08:32:28;;;;;;;13.35;7.88;;;19.30;99.90;;;;;;5031297;28;20444;-47
2023/09/28 08:34:53;;;;;;;13.07;8.13;;;19.30;99.90;;;;;;5030889;28;20030;-46
2023/09/28 08:37:19;;;;;;;19.63;8.93;;;19.30;99.90;;;;;;5031278;28;20370;-46
2023/09/28 08:39:45;;;;;;;12.68;8.60;;;19.20;99.90;;;;;;5031350;28;20029;-46
2023/09/28 08:42:15;;;;;;;9.15;6.97;;;19.30;99.90;;;;;;5031358;28;20096;-47
2023/09/28 08:44:41;;;;;;;11.35;7.43;;;19.30;99.90;;;;;;5031156;28;20030;-49
2023/09/28 08:47:18;;;;;;;14.20;7.85;;;19.30;99.90;;;;;;5031786;28;20025;-48
2023/09/28 08:49:48;;;;;;;10.50;7.32;;;19.40;99.90;;;;;;5035304;28;20507;-48
2023/09/28 08:52:16;;;;;;;12.20;7.72;;;19.30;99.90;;;;;;5034755;28;20017;-51
2023/09/28 08:54:42;;;;;;;14.52;7.00;;;19.40;99.90;;;;;;5034881;28;20022;-50
2023/09/28 08:57:09;;;;;;;10.80;8.30;;;19.50;99.90;;;;;;5035061;28;20056;-49
2023/09/28 08:59:37;;;;;;;11.18;7.00;;;20.30;99.90;;;;;;5035127;28;20037;-46
2023/09/28 09:02:04;;;;;;;7.85;6.10;;;21.70;99.90;;;;;;5035030;28;20437;-48
2023/09/28 09:04:38;;;;;;;8.65;5.57;;;23.30;99.90;;;;;;5034803;28;20104;-46
2023/09/28 09:07:04;;;;;;;6.88;4.68;;;24.50;99.90;;;;;;5034928;28;20025;-47
2023/09/28 09:09:34;;;;;;;8.23;4.60;;;25.90;99.90;;;;;;5034871;28;20033;-49
2023/09/28 09:12:04;;;;;;;9.15;4.65;;;27.10;99.90;;;;;;5034841;28;20029;-48
2023/09/28 09:14:30;;;;;;;8.60;4.70;;;27.80;99.70;;;;;;5034371;28;20447;-50
2023/09/28 09:16:55;;;;;;;7.65;5.63;;;28.60;98.30;;;;;;5034704;28;20021;-49
2023/09/28 09:19:21;;;;;;;8.50;4.43;;;29.30;97.60;;;;;;5034727;28;20457;-48
2023/09/28 09:21:47;;;;;;;8.45;4.10;;;29.60;96.60;;;;;;5034720;28;20029;-47
2023/09/28 09:24:14;;;;;;;4.40;4.00;;;30.10;95.80;;;;;;5034441;28;20041;-50
2023/09/28 09:26:42;;;;;;;7.30;4.53;;;30.10;95.20;;;;;;5034449;28;20029;-47
2023/09/28 09:29:12;;;;;;;5.88;4.43;;;30.20;95.00;;;;;;5034504;28;20387;-47
2023/09/28 09:31:48;;;;;;;5.25;4.20;;;30.40;94.60;;;;;;5034443;28;20029;-50
2023/09/28 09:34:18;;;;;;;4.18;3.78;;;30.20;94.30;;;;;;5034038;28;20477;-49
2023/09/28 09:37:00;;;;;;;11.38;4.00;;;30.00;94.40;;;;;;5034686;28;20469;-50
2023/09/28 09:39:30;;;;;;;7.32;4.38;;;29.90;94.30;;;;;;5033073;28;20033;-49
2023/09/28 09:41:57;;;;;;;9.13;4.88;;;29.20;94.80;;;;;;5034290;28;20377;-46
2023/09/28 09:44:24;;;;;;;6.50;4.28;;;28.70;95.30;;;;;;5033966;28;20013;-49
2023/09/28 09:46:54;;;;;;;9.70;4.32;;;28.30;96.70;;;;;;5034124;28;20405;-47
2023/09/28 09:49:23;;;;;;;8.35;4.60;;;28.10;97.20;;;;;;5034135;28;20101;-47
2023/09/28 09:51:48;;;;;;;9.57;4.50;;;28.00;96.50;;;;;;5033062;28;20401;-49
2023/09/28 09:54:18;;;;;;;6.88;4.20;;;27.50;97.20;;;;;;5033784;28;20033;-49
2023/09/28 09:56:46;;;;;;;6.95;4.22;;;27.50;97.80;;;;;;5034093;28;20060;-47
2023/09/28 09:59:16;;;;;;;7.55;4.00;;;27.40;98.10;;;;;;5033930;28;20022;-48
2023/09/28 10:01:48;;;;;;;10.27;4.20;;;27.40;97.90;;;;;;5034042;28;20448;-49
2023/09/28 10:04:16;;;;;;;7.10;3.92;;;27.40;98.10;;;;;;5033614;28;20095;-47
2023/09/28 10:06:47;;;;;;;5.43;3.92;;;27.40;98.40;;;;;;5033778;28;20026;-46
2023/09/28 10:09:17;;;;;;;19.80;4.25;;;27.30;98.10;;;;;;5033893;28;20057;-46
2023/09/28 10:11:46;;;;;;;4.70;3.92;;;27.20;98.50;;;;;;5033726;28;20024;-48
2023/09/28 10:14:18;;;;;;;6.82;4.22;;;27.20;98.90;;;;;;5033479;28;20076;-47
2023/09/28 10:16:44;;;;;;;5.88;4.43;;;27.10;98.30;;;;;;5033632;28;20515;-46
2023/09/28 10:19:15;;;;;;;5.45;3.97;;;27.20;98.40;;;;;;5033531;28;20156;-46
2023/09/28 10:21:41;;;;;;;4.88;4.43;;;27.10;98.40;;;;;;5033712;28;20628;-47
2023/09/28 10:24:11;;;;;;;10.52;4.80;;;26.80;98.80;;;;;;5033157;28;20129;-50
2023/09/28 10:26:40;;;;;;;6.32;3.90;;;26.60;98.80;;;;;;5033505;28;20091;-47
2023/09/28 10:29:07;;;;;;;7.45;3.75;;;26.30;99.70;;;;;;5033683;28;20037;-46
2023/09/28 10:31:36;;;;;;;10.85;4.57;;;26.00;99.90;;;;;;5033513;28;20026;-49
2023/09/28 10:34:04;;;;;;;13.52;4.22;;;26.00;99.90;;;;;;5032917;28;20028;-46
2023/09/28 10:36:31;;;;;;;10.90;5.10;;;25.90;99.90;;;;;;5015716;28;20033;-49
2023/09/28 10:39:17;;;;;;;9.95;4.57;;;25.70;99.90;;;;;;5033242;28;20043;-48
2023/09/28 10:41:50;;;;;;;7.63;4.05;;;25.50;99.90;;;;;;5033184;28;20025;-49
2023/09/28 10:44:20;;;;;;;8.48;4.13;;;25.30;99.90;;;;;;5032872;28;20033;-48
2023/09/28 10:46:50;;;;;;;9.82;4.80;;;25.30;99.90;;;;;;5032909;28;20021;-48
2023/09/28 10:49:27;;;;;;;11.52;4.38;;;25.20;99.90;;;;;;5033137;28;20045;-50
2023/09/28 10:51:55;;;;;;;11.07;4.10;;;25.00;99.90;;;;;;5033101;28;20029;-46
2023/09/28 10:54:21;;;;;;;8.68;4.05;;;25.00;99.90;;;;;;5032532;28;20032;-47
2023/09/28 10:56:48;;;;;;;4.40;3.53;;;25.00;99.90;;;;;;5033037;28;20029;-47
2023/09/28 10:59:15;;;;;;;7.10;4.00;;;24.80;99.90;;;;;;5032785;28;20044;-47
2023/09/28 11:01:41;;;;;;;5.25;3.83;;;24.80;99.90;;;;;;5032768;28;20125;-46
2023/09/28 11:04:07;;;;;;;15.82;10.15;;;24.70;99.90;;;;;;5032505;28;20223;-48
2023/09/28 11:06:33;;;;;;;20.15;14.85;;;24.70;99.90;;;;;;5032750;28;20400;-46
2023/09/28 11:09:01;;;;;;;14.60;4.50;;;24.60;99.90;;;;;;5031251;28;20049;-49
2023/09/28 11:11:27;;;;;;;10.20;4.50;;;24.50;99.90;;;;;;5031515;28;20083;-47
2023/09/28 11:13:56;;;;;;;6.03;3.28;;;24.60;99.90;;;;;;5032348;28;20176;-48
2023/09/28 11:16:22;;;;;;;8.23;3.72;;;24.40;99.90;;;;;;5032402;28;20072;-48
2023/09/28 11:18:49;;;;;;;10.05;3.92;;;24.40;99.90;;;;;;5030380;28;20033;-46
2023/09/28 11:21:15;;;;;;;6.53;3.90;;;24.30;99.90;;;;;;5032316;28;20036;-49
2023/09/28 11:23:41;;;;;;;4.78;3.70;;;24.20;99.90;;;;;;5031940;28;20037;-47
2023/09/28 11:26:11;;;;;;;4.70;3.55;;;24.10;99.90;;;;;;5031839;28;20416;-45
2023/09/28 11:28:38;;;;;;;7.00;3.42;;;24.10;99.90;;;;;;5032929;28;20481;-46
2023/09/28 11:31:08;;;;;;;6.55;3.13;;;24.00;99.90;;;;;;5032950;28;20074;-46
2023/09/28 11:33:34;;;;;;;8.32;3.50;;;24.10;99.90;;;;;;5032207;28;20018;-51
2023/09/28 11:36:01;;;;;;;7.00;3.25;;;24.00;99.90;;;;;;5031818;28;20561;-46
2023/09/28 11:38:26;;;;;;;5.65;3.00;;;24.00;99.90;;;;;;5031661;28;20021;-48
2023/09/28 11:40:54;;;;;;;7.35;3.28;;;24.10;99.90;;;;;;5050845;28;20083;-49
2023/09/28 11:43:19;;;;;;;7.30;3.17;;;24.10;99.90;;;;;;5050813;28;20029;-47
2023/09/28 11:45:47;;;;;;;9.48;3.53;;;24.10;99.90;;;;;;5048609;28;20025;-46
2023/09/28 11:48:20;;;;;;;4.60;3.30;;;24.20;99.90;;;;;;5050370;28;20028;-46
2023/09/28 11:50:46;;;;;;;5.20;3.28;;;24.20;99.90;;;;;;5050274;28;20021;-46
2023/09/28 11:53:11;;;;;;;3.92;3.38;;;24.20;99.90;;;;;;5050481;28;20036;-46
2023/09/28 11:55:41;;;;;;;3.75;2.97;;;24.20;99.90;;;;;;5051396;28;20032;-48
2023/09/28 11:58:09;;;;;;;9.70;3.42;;;24.20;99.90;;;;;;5051484;28;20021;-45
2023/09/28 12:00:35;;;;;;;5.32;3.05;;;24.20;99.90;;;;;;5051680;28;20057;-50
2023/09/28 12:03:02;;;;;;;4.30;3.55;;;24.20;99.90;;;;;;5051487;28;20039;-46
2023/09/28 12:05:28;;;;;;;6.72;3.03;;;24.20;99.90;;;;;;5051100;28;20044;-48
2023/09/28 12:07:54;;;;;;;4.47;2.72;;;24.10;99.90;;;;;;5051412;28;20488;-48
2023/09/28 12:10:20;;;;;;;5.38;3.67;;;24.10;99.90;;;;;;5051315;28;20053;-46
2023/09/28 12:12:46;;;;;;;28.05;22.10;;;24.10;99.90;;;;;;5051603;28;20028;-47
2023/09/28 12:15:12;;;;;;;10.55;9.02;;;24.10;99.90;;;;;;5051279;28;20086;-48
2023/09/28 12:17:39;;;;;;;15.27;8.23;;;24.10;99.90;;;;;;5051100;28;20021;-46
2023/09/28 12:20:09;;;;;;;6.57;3.10;;;24.20;99.90;;;;;;5051145;28;20048;-49
2023/09/28 12:22:36;;;;;;;5.10;3.03;;;24.20;99.90;;;;;;5049848;28;20017;-47
2023/09/28 12:25:04;;;;;;;5.03;3.13;;;24.20;99.90;;;;;;5051207;28;20100;-47
2023/09/28 12:27:30;;;;;;;9.23;4.22;;;24.20;99.90;;;;;;5051650;28;20155;-48
2023/09/28 12:29:56;;;;;;;7.20;2.88;;;24.20;99.90;;;;;;5051621;28;20104;-46
2023/09/28 12:32:22;;;;;;;3.97;2.90;;;24.20;99.90;;;;;;5051046;28;20388;-47
2023/09/28 12:34:47;;;;;;;3.95;3.00;;;24.30;99.90;;;;;;5051018;28;20033;-52